Time;durP1;ratioP1;P1;durP2;ratioP2;P2;SDS_P1;SDS_P2;PMS_P1;PMS_P2;Temp;Humidity;BMP_temperature;BMP_pressure;BME280_temperature;BME280_humidity;BME280_pressure;Samples;Min_cycle;Max_cycle;Signal;HPM_P1;HPM_P2
2023/01/30 00:00:57;;;;;;;19.65;13.07;;;;;;;-0.77;72.86;97261.81;6246007;23;20068;-77
2023/01/30 00:03:27;;;;;;;19.95;13.02;;;;;;;-0.77;74.17;97259.25;6246092;23;20026;-77
2023/01/30 00:05:54;;;;;;;19.58;13.05;;;;;;;-0.76;73.62;97253.25;6245750;23;20342;-77
2023/01/30 00:08:22;;;;;;;21.48;13.15;;;;;;;-0.77;73.78;97254.97;6245278;23;20116;-77
2023/01/30 00:10:50;;;;;;;21.33;13.00;;;;;;;-0.79;73.48;97243.16;6246286;23;20355;-77
2023/01/30 00:13:17;;;;;;;20.63;13.57;;;;;;;-0.78;73.86;97245.66;6246152;23;20016;-77
2023/01/30 00:15:45;;;;;;;19.80;13.18;;;;;;;-0.76;73.75;97228.44;6247003;23;20020;-77
2023/01/30 00:18:12;;;;;;;21.02;13.07;;;;;;;-0.75;74.16;97222.38;6244683;23;20031;-77
2023/01/30 00:20:41;;;;;;;18.80;13.18;;;;;;;-0.72;74.27;97221.38;6245988;23;20107;-77
2023/01/30 00:23:09;;;;;;;18.95;12.38;;;;;;;-0.72;73.41;97219.66;6245791;23;20020;-77
2023/01/30 00:25:36;;;;;;;21.38;13.30;;;;;;;-0.76;72.34;97222.50;6246220;23;20074;-77
2023/01/30 00:28:04;;;;;;;18.17;12.38;;;;;;;-0.76;73.14;97204.56;6244935;23;20537;-78
2023/01/30 00:30:32;;;;;;;20.40;13.57;;;;;;;-0.74;73.94;97212.97;6245782;23;20352;-77
2023/01/30 00:32:59;;;;;;;17.27;12.15;;;;;;;-0.74;72.99;97207.84;6245882;23;20020;-77
2023/01/30 00:35:28;;;;;;;19.23;13.60;;;;;;;-0.75;73.28;97212.13;6246033;23;20094;-77
2023/01/30 00:37:58;;;;;;;21.70;12.75;;;;;;;-0.73;74.37;97200.06;6244371;23;20578;-77
2023/01/30 00:40:28;;;;;;;20.67;14.05;;;;;;;-0.74;72.90;97184.81;6246106;23;20020;-77
2023/01/30 00:48:30;;;;;;;18.73;12.40;;;;;;;-0.76;72.92;97176.41;6244228;23;20027;-77
2023/01/30 00:50:58;;;;;;;20.67;12.75;;;;;;;-0.76;73.39;97178.94;6245270;23;20020;-77
2023/01/30 00:53:27;;;;;;;19.05;13.35;;;;;;;-0.75;73.08;97185.72;6245718;23;20020;-78
2023/01/30 00:55:55;;;;;;;21.27;12.85;;;;;;;-0.73;73.83;97178.75;6245789;23;20031;-77
2023/01/30 00:58:23;;;;;;;19.50;11.90;;;;;;;-0.70;74.26;97183.66;6244335;23;20027;-77
2023/01/30 01:00:51;;;;;;;21.25;13.27;;;;;;;-0.69;73.88;97191.25;6245706;23;20098;-77
2023/01/30 01:03:19;;;;;;;19.80;12.95;;;;;;;-0.67;74.55;97199.66;6245647;23;20483;-77
2023/01/30 01:05:47;;;;;;;22.90;12.98;;;;;;;-0.64;74.30;97207.16;6245056;23;20043;-77
2023/01/30 01:08:15;;;;;;;20.63;13.32;;;;;;;-0.65;73.11;97197.03;6244792;23;20031;-77
2023/01/30 01:10:44;;;;;;;19.23;12.45;;;;;;;-0.67;74.07;97211.66;6245530;23;20461;-77
2023/01/30 01:13:11;;;;;;;19.98;12.65;;;;;;;-0.67;73.43;97219.34;6245579;23;20408;-77
2023/01/30 01:15:40;;;;;;;19.45;12.13;;;;;;;-0.72;72.66;97218.81;6246005;23;20461;-77
2023/01/30 01:18:07;;;;;;;19.38;12.48;;;;;;;-0.73;73.45;97214.63;6244045;23;20393;-77
2023/01/30 01:20:35;;;;;;;20.85;13.60;;;;;;;-0.71;73.95;97220.47;6250132;23;20369;-78
2023/01/30 01:23:02;;;;;;;19.73;13.15;;;;;;;-0.70;73.84;97225.50;6251130;23;20099;-78
2023/01/30 01:25:30;;;;;;;18.58;12.65;;;;;;;-0.69;73.80;97239.13;6260308;23;20020;-78
2023/01/30 01:27:59;;;;;;;21.42;13.40;;;;;;;-0.70;74.06;97243.44;6270976;22;20008;-78
2023/01/30 01:30:26;;;;;;;20.95;12.57;;;;;;;-0.69;74.00;97246.81;6269814;22;20023;-77
2023/01/30 01:32:54;;;;;;;21.73;13.57;;;;;;;-0.69;74.50;97255.31;6258390;23;20074;-77
2023/01/30 01:35:21;;;;;;;19.10;13.38;;;;;;;-0.72;73.42;97260.63;6246280;23;20020;-77
2023/01/30 01:37:53;;;;;;;18.90;12.70;;;;;;;-0.76;73.02;97268.63;6244976;23;20367;-77
2023/01/30 01:43:21;;;;;;;18.33;11.75;;;;;;;-0.89;72.18;97256.56;6272265;23;20051;-77
2023/01/30 01:45:52;;;;;;;19.27;11.98;;;;;;;-0.90;73.54;97251.50;6260671;23;20058;-77
2023/01/30 01:48:26;;;;;;;20.80;13.15;;;;;;;-0.88;73.80;97258.19;6245730;23;20024;-77
2023/01/30 01:50:59;;;;;;;19.77;12.25;;;;;;;-0.87;73.95;97254.72;6245531;23;20051;-77
2023/01/30 01:53:33;;;;;;;18.23;12.18;;;;;;;-0.83;74.72;97260.47;6245974;23;20051;-77
2023/01/30 01:56:03;;;;;;;19.92;12.65;;;;;;;-0.78;74.87;97260.19;6245961;23;20076;-77
2023/01/30 01:58:39;;;;;;;20.10;13.43;;;;;;;-0.75;74.72;97258.25;6249979;23;20031;-78
2023/01/30 02:01:07;;;;;;;21.25;12.80;;;;;;;-0.73;74.47;97250.47;6254062;23;20399;-78
2023/01/30 02:03:39;;;;;;;18.88;12.93;;;;;;;-0.72;74.90;97241.84;6252785;23;20016;-78
2023/01/30 02:06:08;;;;;;;21.55;13.18;;;;;;;-0.70;75.06;97242.59;6245564;23;20023;-77
2023/01/30 02:08:40;;;;;;;21.00;13.30;;;;;;;-0.65;75.59;97238.00;6244795;23;20102;-77
2023/01/30 02:11:12;;;;;;;20.88;13.98;;;;;;;-0.64;75.89;97237.09;6245346;23;20066;-77
2023/01/30 02:13:41;;;;;;;19.42;13.07;;;;;;;-0.60;75.76;97238.53;6245593;23;20095;-77
2023/01/30 02:16:09;;;;;;;20.80;13.15;;;;;;;-0.58;75.60;97228.19;6246852;23;20016;-77
2023/01/30 02:18:40;;;;;;;21.48;13.90;;;;;;;-0.58;76.39;97223.91;6244713;23;20031;-77
2023/01/30 02:21:35;;;;;;;23.83;13.70;;;;;;;-0.56;76.69;97236.63;6245732;23;20020;-77
2023/01/30 02:24:21;;;;;;;20.95;13.82;;;;;;;-0.56;76.91;97240.00;6245229;23;20067;-77
2023/01/30 02:27:02;;;;;;;22.33;14.30;;;;;;;-0.59;76.58;97229.94;6244869;23;20103;-77
2023/01/30 02:30:09;;;;;;;18.92;12.70;;;;;;;-0.56;76.59;97228.94;6244467;23;20468;-77
2023/01/30 02:32:45;;;;;;;19.90;12.93;;;;;;;-0.58;75.07;97230.75;6247197;23;20031;-77
2023/01/30 02:35:21;;;;;;;19.27;12.23;;;;;;;-0.64;74.61;97227.66;6245047;23;20460;-77
2023/01/30 02:38:03;;;;;;;25.98;13.98;;;;;;;-0.68;74.29;97222.81;6245589;23;20333;-77
2023/01/30 02:40:42;;;;;;;19.80;12.35;;;;;;;-0.66;75.31;97226.09;6245359;23;20020;-77
2023/01/30 02:43:20;;;;;;;18.00;11.90;;;;;;;-0.64;74.42;97219.16;6246274;23;20013;-77
2023/01/30 02:45:55;;;;;;;18.67;12.82;;;;;;;-0.58;76.11;97207.69;6246570;23;20026;-77
2023/01/30 02:48:28;;;;;;;19.98;12.85;;;;;;;-0.56;75.69;97178.50;6245657;23;20024;-77
2023/01/30 02:50:59;;;;;;;17.98;12.65;;;;;;;-0.58;74.48;97171.81;6246915;23;20476;-77
2023/01/30 02:53:31;;;;;;;21.52;13.32;;;;;;;-0.63;74.03;97165.25;6247361;23;20337;-77
2023/01/30 02:55:59;;;;;;;17.13;11.82;;;;;;;-0.64;74.15;97173.84;6246573;23;20016;-77
2023/01/30 02:58:31;;;;;;;19.83;12.52;;;;;;;-0.67;73.38;97170.69;6245409;23;20531;-77
2023/01/30 03:01:29;;;;;;;18.67;12.70;;;;;;;-0.67;75.69;97174.06;6246485;23;20460;-77
2023/01/30 03:04:17;;;;;;;20.48;12.68;;;;;;;-0.63;75.25;97170.38;6247027;23;20060;-77
2023/01/30 03:06:59;;;;;;;19.73;13.10;;;;;;;-0.60;74.00;97182.16;6246327;23;20453;-77
2023/01/30 03:09:36;;;;;;;19.55;12.13;;;;;;;-0.60;73.92;97179.59;6246007;23;20396;-77
2023/01/30 03:12:13;;;;;;;21.15;13.30;;;;;;;-0.60;74.45;97178.78;6247023;23;20070;-77
2023/01/30 03:14:47;;;;;;;19.90;12.95;;;;;;;-0.58;75.31;97175.22;6247490;23;20020;-77
2023/01/30 03:17:18;;;;;;;19.30;12.63;;;;;;;-0.57;75.48;97181.97;6246381;23;20020;-77
2023/01/30 03:19:47;;;;;;;19.17;12.35;;;;;;;-0.57;75.23;97168.34;6245327;23;20020;-77
2023/01/30 03:22:14;;;;;;;20.15;11.88;;;;;;;-0.58;74.70;97159.00;6246770;23;20075;-77
2023/01/30 03:24:42;;;;;;;21.90;14.20;;;;;;;-0.58;75.20;97167.53;6246622;23;20091;-77
2023/01/30 03:27:11;;;;;;;22.83;13.38;;;;;;;-0.55;75.30;97159.63;6246162;23;20012;-77
2023/01/30 03:29:40;;;;;;;18.92;12.10;;;;;;;-0.54;75.07;97143.34;6245500;23;20024;-77
2023/01/30 03:32:07;;;;;;;18.38;12.35;;;;;;;-0.54;74.85;97153.59;6247617;23;20024;-77
2023/01/30 03:34:35;;;;;;;22.70;13.90;;;;;;;-0.53;74.39;97139.84;6247294;23;20027;-77
2023/01/30 03:39:31;;;;;;;19.20;12.35;;;;;;;-0.53;74.53;97132.16;6214339;22;20024;-77
2023/01/30 03:41:59;;;;;;;22.25;13.15;;;;;;;-0.53;74.27;97110.84;6216203;23;20107;-76
2023/01/30 03:44:27;;;;;;;22.67;13.63;;;;;;;-0.51;75.11;97089.31;6216999;23;20021;-77
2023/01/30 03:46:54;;;;;;;24.05;13.70;;;;;;;-0.48;75.54;97066.06;6216409;23;20020;-77
2023/01/30 03:49:22;;;;;;;20.17;13.95;;;;;;;-0.48;75.60;97042.16;6244229;23;20048;-77
2023/01/30 03:51:49;;;;;;;25.00;14.20;;;;;;;-0.46;75.95;97032.63;6246278;23;20020;-77
2023/01/30 03:54:17;;;;;;;22.27;13.85;;;;;;;-0.47;75.16;97025.88;6246768;23;20039;-77
2023/01/30 03:56:46;;;;;;;17.92;12.18;;;;;;;-0.51;74.19;97044.94;6246479;23;20067;-77
2023/01/30 03:59:13;;;;;;;19.45;13.15;;;;;;;-0.55;73.51;97049.44;6245665;23;20016;-77
2023/01/30 04:01:41;;;;;;;19.92;13.38;;;;;;;-0.58;73.03;97038.59;6246266;23;20030;-77
2023/01/30 04:04:08;;;;;;;18.83;11.98;;;;;;;-0.63;72.46;97041.47;6246814;23;20099;-77
2023/01/30 04:06:36;;;;;;;18.85;13.13;;;;;;;-0.66;72.44;97052.72;6246875;23;20025;-77
2023/01/30 04:09:03;;;;;;;19.52;12.13;;;;;;;-0.68;72.34;97064.81;6245687;23;20107;-76
2023/01/30 04:11:31;;;;;;;18.27;11.45;;;;;;;-0.68;72.15;97062.25;6246711;23;20095;-77
2023/01/30 04:14:00;;;;;;;18.48;11.85;;;;;;;-0.66;72.91;97075.78;6246878;23;20031;-77
2023/01/30 04:16:28;;;;;;;16.80;11.88;;;;;;;-0.59;73.53;97075.38;6246350;23;20012;-77
2023/01/30 04:18:55;;;;;;;20.38;11.40;;;;;;;-0.56;73.14;97075.19;6246069;23;20031;-77
2023/01/30 04:21:23;;;;;;;17.15;10.82;;;;;;;-0.53;72.81;97072.41;6246338;23;20482;-77
2023/01/30 04:23:50;;;;;;;16.85;10.38;;;;;;;-0.51;71.93;97065.44;6246424;23;20056;-77
2023/01/30 04:26:18;;;;;;;16.50;11.50;;;;;;;-0.46;72.34;97077.03;6246898;23;20099;-77
2023/01/30 04:28:46;;;;;;;16.90;9.98;;;;;;;-0.39;72.52;97068.91;6245256;23;20099;-76
2023/01/30 04:31:14;;;;;;;20.00;10.27;;;;;;;-0.37;71.83;97075.59;6246984;23;20051;-77
2023/01/30 04:33:42;;;;;;;12.55;8.90;;;;;;;-0.32;71.52;97075.31;6248078;23;20029;-77
2023/01/30 04:36:11;;;;;;;16.48;10.25;;;;;;;-0.31;72.23;97072.59;6247069;23;20404;-77
2023/01/30 04:38:38;;;;;;;16.40;9.57;;;;;;;-0.25;72.21;97079.09;6244837;23;20559;-77
2023/01/30 04:41:06;;;;;;;16.42;11.00;;;;;;;-0.19;72.54;97071.00;6246960;23;20027;-77
2023/01/30 04:43:33;;;;;;;18.33;11.77;;;;;;;-0.18;72.38;97071.81;6246076;23;20024;-77
2023/01/30 04:46:01;;;;;;;18.67;11.02;;;;;;;-0.16;73.32;97064.81;6246378;23;20337;-76
2023/01/30 04:48:30;;;;;;;16.67;10.00;;;;;;;-0.16;71.62;97068.19;6245362;23;20095;-77
2023/01/30 04:50:58;;;;;;;16.30;10.57;;;;;;;-0.15;71.68;97067.28;6246503;23;20051;-77
2023/01/30 04:53:25;;;;;;;16.75;10.02;;;;;;;-0.13;71.23;97060.31;6245993;23;20022;-77
2023/01/30 04:55:53;;;;;;;16.42;11.32;;;;;;;-0.09;71.74;97056.63;6245875;23;20095;-76
2023/01/30 04:58:20;;;;;;;15.13;9.73;;;;;;;-0.08;72.51;97055.69;6245187;23;20050;-77
2023/01/30 05:00:48;;;;;;;17.33;10.38;;;;;;;-0.05;72.81;97050.34;6245678;23;20024;-77
2023/01/30 05:03:16;;;;;;;16.60;9.98;;;;;;;-0.02;72.92;97052.72;6245697;23;20027;-77
2023/01/30 05:05:47;;;;;;;16.33;9.55;;;;;;;0.01;71.86;97051.69;6246395;23;20020;-77
2023/01/30 05:08:15;;;;;;;13.45;9.60;;;;;;;0.03;71.54;97047.28;6245276;23;20020;-76
2023/01/30 05:10:43;;;;;;;15.75;9.23;;;;;;;0.07;71.95;97046.13;6246058;23;20547;-76
2023/01/30 05:13:10;;;;;;;13.02;8.40;;;;;;;0.07;71.41;97040.19;6246077;23;20028;-77
2023/01/30 05:15:40;;;;;;;13.20;8.52;;;;;;;0.09;71.32;97043.44;6242171;23;20055;-76
2023/01/30 05:18:08;;;;;;;12.77;9.13;;;;;;;0.08;71.35;97042.63;6245365;23;20051;-76
2023/01/30 05:20:35;;;;;;;13.15;8.70;;;;;;;0.10;70.97;97055.38;6246040;23;20409;-77
2023/01/30 05:23:04;;;;;;;14.55;8.85;;;;;;;0.11;71.05;97057.00;6248822;23;20059;-76
2023/01/30 05:25:31;;;;;;;12.65;8.75;;;;;;;0.13;70.73;97065.41;6252482;23;20020;-77
2023/01/30 05:27:59;;;;;;;12.40;8.60;;;;;;;0.14;70.80;97051.66;6258358;23;20043;-76
2023/01/30 05:30:27;;;;;;;13.13;8.05;;;;;;;0.15;70.37;97061.00;6254777;23;20356;-77
2023/01/30 05:32:54;;;;;;;12.80;7.80;;;;;;;0.16;69.96;97049.81;6250473;23;20020;-77
2023/01/30 05:35:22;;;;;;;16.13;9.90;;;;;;;0.14;70.42;97037.09;6247679;23;20115;-77
2023/01/30 05:37:50;;;;;;;12.07;8.45;;;;;;;0.16;70.51;97034.41;6244870;23;20139;-77
2023/01/30 05:40:19;;;;;;;14.50;8.27;;;;;;;0.18;71.25;97027.44;6245509;23;20095;-76
2023/01/30 05:42:46;;;;;;;11.45;7.95;;;;;;;0.18;70.63;97038.50;6244922;23;20026;-77
2023/01/30 05:45:14;;;;;;;12.93;8.60;;;;;;;0.17;70.23;97031.72;6246121;23;20031;-76
2023/01/30 05:47:42;;;;;;;10.32;7.05;;;;;;;0.18;70.16;97028.25;6246321;23;20146;-76
2023/01/30 05:50:11;;;;;;;12.43;7.70;;;;;;;0.20;70.57;97025.59;6245363;23;20020;-76
2023/01/30 05:52:38;;;;;;;10.27;7.05;;;;;;;0.21;69.91;97032.34;6245417;23;20070;-78
2023/01/30 05:55:07;;;;;;;9.35;7.03;;;;;;;0.20;69.68;97031.53;6246003;23;20020;-76
2023/01/30 05:57:36;;;;;;;13.68;7.18;;;;;;;0.22;69.81;97039.13;6246727;23;20384;-79
2023/01/30 06:00:04;;;;;;;12.23;7.47;;;;;;;0.22;69.12;97039.13;6246163;23;20098;-79
2023/01/30 06:02:32;;;;;;;10.63;6.65;;;;;;;0.22;68.87;97040.84;6246915;23;20066;-79
2023/01/30 06:04:59;;;;;;;10.93;6.95;;;;;;;0.26;69.44;97035.41;6246714;23;20043;-79
2023/01/30 06:07:27;;;;;;;11.27;7.47;;;;;;;0.27;68.51;97029.34;6248530;23;20016;-79
2023/01/30 06:09:55;;;;;;;10.20;7.28;;;;;;;0.26;68.88;97035.41;6247995;23;20472;-80
2023/01/30 06:12:24;;;;;;;11.40;6.88;;;;;;;0.26;69.57;97025.13;6247550;23;20016;-80
2023/01/30 06:14:55;;;;;;;10.25;6.88;;;;;;;0.27;68.93;97016.53;6248321;23;20019;-79
2023/01/30 06:17:24;;;;;;;10.43;7.03;;;;;;;0.29;69.53;97004.41;6247941;23;20020;-80
2023/01/30 06:19:56;;;;;;;10.48;7.15;;;;;;;0.34;69.38;97012.59;6247940;23;20027;-79
2023/01/30 06:22:25;;;;;;;9.88;7.22;;;;;;;0.36;69.72;97015.88;6248523;23;20044;-79
2023/01/30 06:24:54;;;;;;;11.00;7.57;;;;;;;0.39;70.50;97013.13;6249858;23;20380;-79
2023/01/30 06:27:24;;;;;;;10.52;6.40;;;;;;;0.41;69.94;97018.13;6273224;23;20016;-80
2023/01/30 06:29:54;;;;;;;10.57;7.38;;;;;;;0.40;70.27;97009.59;6272401;23;20032;-80
2023/01/30 06:32:24;;;;;;;12.35;8.10;;;;;;;0.40;71.21;97007.03;6252530;23;20020;-79
2023/01/30 06:34:53;;;;;;;8.68;6.20;;;;;;;0.40;71.15;97004.47;6248869;23;20019;-79
2023/01/30 06:37:22;;;;;;;9.75;6.25;;;;;;;0.40;70.43;97001.91;6248201;23;20023;-79
2023/01/30 06:39:51;;;;;;;11.52;6.20;;;;;;;0.45;70.70;97008.47;6248191;23;20042;-79
2023/01/30 06:42:20;;;;;;;10.00;7.38;;;;;;;0.44;70.35;97017.06;6248318;23;20046;-79
2023/01/30 06:44:49;;;;;;;8.85;5.95;;;;;;;0.47;69.76;97014.31;6248320;23;20376;-79
2023/01/30 06:47:20;;;;;;;8.90;6.28;;;;;;;0.48;69.61;97015.94;6247363;23;20341;-79
2023/01/30 06:49:49;;;;;;;11.45;6.90;;;;;;;0.48;69.50;97008.25;6247890;23;20127;-79
2023/01/30 06:52:19;;;;;;;10.98;7.07;;;;;;;0.47;69.74;97016.88;6247859;23;20027;-80
2023/01/30 06:54:51;;;;;;;11.50;7.45;;;;;;;0.46;70.21;97015.22;6248804;23;20095;-79
2023/01/30 06:57:20;;;;;;;12.00;7.80;;;;;;;0.49;70.10;97020.16;6248204;23;20038;-79
2023/01/30 06:59:49;;;;;;;11.10;7.30;;;;;;;0.49;70.88;97022.72;6248145;23;20095;-79
2023/01/30 07:02:22;;;;;;;11.70;6.63;;;;;;;0.50;71.25;97022.59;6248025;23;20548;-79
2023/01/30 07:04:54;;;;;;;9.02;6.72;;;;;;;0.52;70.86;97009.66;6248354;23;20070;-79
2023/01/30 07:07:23;;;;;;;9.57;6.45;;;;;;;0.54;70.62;97002.66;6247944;23;20511;-79
2023/01/30 07:09:55;;;;;;;10.27;6.75;;;;;;;0.54;69.90;97000.91;6248862;23;20047;-79
2023/01/30 07:12:35;;;;;;;11.80;7.18;;;;;;;0.53;70.52;96995.91;6248432;23;20012;-80
2023/01/30 07:15:05;;;;;;;13.18;7.50;;;;;;;0.51;70.66;97013.16;6248262;23;20020;-79
2023/01/30 07:17:36;;;;;;;10.73;6.05;;;;;;;0.52;70.20;97014.78;6247595;23;20095;-79
2023/01/30 07:20:06;;;;;;;10.77;6.85;;;;;;;0.52;70.75;97013.03;6247948;23;20364;-80
2023/01/30 07:22:35;;;;;;;10.00;6.70;;;;;;;0.54;70.75;97011.19;6248539;23;20471;-79
2023/01/30 07:25:04;;;;;;;9.38;6.00;;;;;;;0.56;70.04;97006.75;6248118;23;20530;-79
2023/01/30 07:27:34;;;;;;;10.07;6.15;;;;;;;0.58;69.89;97009.22;6248042;23;20043;-79
2023/01/30 07:30:03;;;;;;;8.75;5.80;;;;;;;0.62;70.56;97010.66;6247944;23;20027;-79
2023/01/30 07:32:33;;;;;;;9.15;6.30;;;;;;;0.67;71.02;97018.84;6248000;23;20025;-80
2023/01/30 07:35:03;;;;;;;8.77;6.13;;;;;;;0.71;71.76;97007.41;6248257;23;20456;-80
2023/01/30 07:37:33;;;;;;;9.90;6.43;;;;;;;0.75;70.51;97016.53;6247220;23;20074;-80
2023/01/30 07:40:03;;;;;;;8.57;5.63;;;;;;;0.73;69.87;97015.84;6248435;23;20020;-79
2023/01/30 07:42:32;;;;;;;9.10;5.97;;;;;;;0.74;69.86;97017.47;6254892;22;20000;-80
2023/01/30 07:45:01;;;;;;;8.57;5.85;;;;;;;0.75;70.13;97020.88;6272830;23;20299;-80
2023/01/30 07:47:31;;;;;;;7.97;5.85;;;;;;;0.76;69.71;97014.78;6272457;23;20052;-80
2023/01/30 07:49:59;;;;;;;8.80;5.60;;;;;;;0.74;69.49;97027.72;6271910;23;20004;-79
2023/01/30 07:52:30;;;;;;;9.73;5.75;;;;;;;0.71;69.01;97025.38;6264098;23;20020;-79
2023/01/30 07:54:59;;;;;;;8.38;6.03;;;;;;;0.72;68.91;97021.06;6249041;23;20024;-79
2023/01/30 07:57:30;;;;;;;8.95;6.05;;;;;;;0.71;69.13;97022.81;6248291;23;20023;-79
2023/01/30 07:59:59;;;;;;;9.90;6.45;;;;;;;0.72;70.29;97016.78;6248185;23;20472;-79
2023/01/30 08:02:29;;;;;;;9.90;6.60;;;;;;;0.74;70.17;97032.88;6248320;23;20531;-80
2023/01/30 08:04:58;;;;;;;8.77;5.72;;;;;;;0.75;69.56;97031.94;6248113;23;20068;-79
2023/01/30 08:07:29;;;;;;;8.60;5.95;;;;;;;0.77;69.48;97048.06;6248024;23;20028;-80
2023/01/30 08:09:58;;;;;;;9.88;6.55;;;;;;;0.77;69.34;97024.16;6247562;23;20016;-79
2023/01/30 08:12:28;;;;;;;8.63;6.43;;;;;;;0.78;69.45;97016.31;6251504;23;20027;-79
2023/01/30 08:14:57;;;;;;;8.88;5.57;;;;;;;0.80;69.95;97024.72;6256248;23;20483;-79
2023/01/30 08:17:26;;;;;;;8.18;5.63;;;;;;;0.81;70.55;97017.88;6251824;23;20016;-79
2023/01/30 08:19:55;;;;;;;8.20;5.40;;;;;;;0.84;70.21;96998.84;6248409;23;20024;-79
2023/01/30 08:22:25;;;;;;;7.10;5.32;;;;;;;0.84;70.28;96991.94;6247975;23;20103;-79
2023/01/30 08:24:55;;;;;;;8.80;5.60;;;;;;;0.85;69.99;97023.56;6247517;23;20360;-80
2023/01/30 08:27:25;;;;;;;8.95;5.53;;;;;;;0.88;69.66;97038.78;6247271;23;20022;-79
2023/01/30 08:29:56;;;;;;;6.85;4.70;;;;;;;0.90;69.19;97034.34;6247518;23;20035;-79
2023/01/30 08:32:25;;;;;;;8.73;5.88;;;;;;;0.90;69.33;97008.69;6247171;23;20016;-79
2023/01/30 08:34:54;;;;;;;7.30;5.05;;;;;;;0.93;70.13;96995.59;6247343;23;20069;-79
2023/01/30 08:37:24;;;;;;;9.20;5.50;;;;;;;0.96;69.90;96991.06;6246823;23;20016;-79
2023/01/30 08:39:52;;;;;;;7.20;4.47;;;;;;;0.99;69.74;96995.16;6247411;23;20491;-79
2023/01/30 08:42:23;;;;;;;6.78;5.05;;;;;;;1.01;69.17;96993.28;6247902;23;20368;-79
2023/01/30 08:44:52;;;;;;;8.38;4.70;;;;;;;1.03;69.46;96983.72;6247738;23;20016;-79
2023/01/30 08:47:22;;;;;;;9.38;5.45;;;;;;;1.05;69.39;96979.28;6261457;23;20024;-79
2023/01/30 08:49:51;;;;;;;7.97;4.82;;;;;;;1.08;69.71;96991.91;6270010;23;20047;-80
2023/01/30 08:52:21;;;;;;;12.70;5.40;;;;;;;1.09;70.15;96983.25;6257745;23;20098;-79
2023/01/30 08:54:50;;;;;;;6.88;4.68;;;;;;;1.15;70.37;96959.69;6247821;23;20016;-79
2023/01/30 08:57:20;;;;;;;6.78;4.72;;;;;;;1.21;69.98;96966.94;6247472;23;20043;-79
2023/01/30 08:59:51;;;;;;;6.05;4.25;;;;;;;1.33;70.34;96959.25;6247545;23;20016;-79
2023/01/30 09:02:20;;;;;;;6.80;5.40;;;;;;;1.42;70.29;96967.09;6248161;23;20460;-80
2023/01/30 09:04:50;;;;;;;6.53;4.70;;;;;;;1.52;70.35;96969.78;6247128;23;20023;-79
2023/01/30 09:07:19;;;;;;;7.65;4.90;;;;;;;1.57;70.30;96941.94;6248374;23;20016;-79
2023/01/30 09:09:48;;;;;;;5.45;4.10;;;;;;;1.64;71.13;96947.47;6248438;23;20012;-79
2023/01/30 09:12:18;;;;;;;5.80;4.32;;;;;;;1.68;70.49;96920.56;6247821;23;20095;-79
2023/01/30 09:14:48;;;;;;;7.00;4.50;;;;;;;1.73;70.86;96921.03;6247322;23;20013;-78
2023/01/30 09:17:18;;;;;;;10.48;4.78;;;;;;;1.79;71.41;96936.00;6247131;23;20016;-79
2023/01/30 09:19:48;;;;;;;5.82;4.30;;;;;;;1.87;70.95;96922.53;6246713;23;20051;-80
2023/01/30 09:22:17;;;;;;;5.40;3.60;;;;;;;1.92;70.99;96924.75;6247058;23;20019;-79
2023/01/30 09:24:49;;;;;;;6.28;3.75;;;;;;;1.96;71.01;96933.84;6246939;23;20066;-78
2023/01/30 09:27:18;;;;;;;7.18;4.60;;;;;;;1.98;71.45;96926.84;6246924;23;20095;-79
2023/01/30 09:29:47;;;;;;;5.72;4.03;;;;;;;1.98;71.45;96931.97;6246807;23;20012;-79
2023/01/30 09:32:19;;;;;;;5.57;3.97;;;;;;;1.99;71.45;96937.03;6247260;23;20070;-80
2023/01/30 09:34:49;;;;;;;4.97;3.53;;;;;;;1.99;71.44;96949.03;6246947;23;20478;-79
2023/01/30 09:37:21;;;;;;;5.95;4.05;;;;;;;1.97;71.59;96936.31;6246632;23;20020;-80
2023/01/30 09:39:49;;;;;;;4.80;3.42;;;;;;;1.98;71.51;96934.56;6215211;22;20066;-78
2023/01/30 09:42:50;;;;;;;4.90;3.45;;;;;;;1.94;71.72;96933.97;6215372;23;20016;-77
2023/01/30 09:45:39;;;;;;;6.32;3.53;;;;;;;1.92;72.02;96930.69;6176649;23;20091;-77
2023/01/30 09:48:15;;;;;;;7.70;4.25;;;;;;;1.91;71.77;96923.94;6220564;23;20028;-77
2023/01/30 09:51:11;;;;;;;5.93;3.88;;;;;;;1.90;71.47;96909.41;6246103;23;20024;-77
2023/01/30 09:53:52;;;;;;;6.60;4.00;;;;;;;1.89;71.78;96904.41;6245587;23;20067;-78
2023/01/30 09:56:20;;;;;;;6.55;3.75;;;;;;;1.86;71.64;96905.47;6245836;23;20051;-78
2023/01/30 09:58:53;;;;;;;5.55;3.42;;;;;;;1.83;71.93;96895.41;6244583;23;20026;-77
2023/01/30 10:01:26;;;;;;;6.78;3.53;;;;;;;1.87;72.06;96906.28;6245226;23;20031;-77
2023/01/30 10:04:05;;;;;;;7.28;3.78;;;;;;;1.89;72.76;96892.34;6245639;23;20062;-78
2023/01/30 10:06:40;;;;;;;4.35;3.30;;;;;;;1.92;71.97;96892.09;6245758;23;20024;-77
2023/01/30 10:09:13;;;;;;;5.35;3.67;;;;;;;1.96;72.42;96897.84;6244489;23;20024;-78
2023/01/30 10:11:53;;;;;;;6.45;3.88;;;;;;;2.00;71.97;96901.81;6248774;23;20103;-79
2023/01/30 10:14:35;;;;;;;6.45;3.95;;;;;;;2.05;71.73;96908.22;6268397;23;20008;-78
2023/01/30 10:17:23;;;;;;;5.78;3.70;;;;;;;2.09;71.69;96879.69;6257202;23;20022;-78
2023/01/30 10:20:02;;;;;;;6.70;3.67;;;;;;;2.13;71.50;96891.38;6244589;23;20103;-78
2023/01/30 10:22:41;;;;;;;6.68;3.28;;;;;;;2.14;71.57;96896.38;6246264;23;20072;-78
2023/01/30 10:25:26;;;;;;;6.90;3.40;;;;;;;2.15;71.45;96890.31;6245225;23;20530;-78
2023/01/30 10:27:59;;;;;;;6.65;4.13;;;;;;;2.17;71.23;96892.75;6244826;23;20076;-78
2023/01/30 10:30:26;;;;;;;;;;;;;;;2.19;71.54;96890.88;6245950;23;20091;-77
2023/01/30 10:32:58;;;;;;;5.13;3.33;;;;;;;2.16;71.71;96901.41;6245792;23;19966;-77
2023/01/30 10:35:32;;;;;;;8.85;3.78;;;;;;;2.12;71.64;96902.59;6245825;23;20024;-77
2023/01/30 10:38:07;;;;;;;4.63;3.22;;;;;;;2.12;72.20;96912.88;6244501;23;20485;-78
2023/01/30 10:40:40;;;;;;;4.80;3.45;;;;;;;2.10;72.86;96902.72;6245780;23;20024;-77
2023/01/30 10:43:15;;;;;;;4.53;3.28;;;;;;;2.09;72.96;96895.94;6245369;23;20055;-78
2023/01/30 10:45:53;;;;;;;4.72;3.60;;;;;;;2.10;73.66;96899.31;6245731;23;20502;-77
2023/01/30 10:48:38;;;;;;;5.38;3.50;;;;;;;2.10;73.67;96876.16;6244169;23;20104;-78
2023/01/30 10:51:24;;;;;;;4.90;3.25;;;;;;;2.09;73.68;96879.69;6246393;23;20086;-77
2023/01/30 10:53:59;;;;;;;5.63;3.47;;;;;;;2.06;74.17;96873.84;6247847;23;20020;-78
2023/01/30 10:56:35;;;;;;;5.38;3.55;;;;;;;2.10;73.86;96878.72;6247718;23;20067;-78
2023/01/30 10:59:15;;;;;;;7.55;4.00;;;;;;;2.12;74.31;96884.56;6246291;23;20040;-77
2023/01/30 11:01:47;;;;;;;5.68;3.50;;;;;;;2.15;73.53;96868.91;6246957;23;20054;-78
2023/01/30 11:04:24;;;;;;;4.85;3.60;;;;;;;2.18;74.21;96876.38;6247094;23;20115;-78
2023/01/30 11:06:56;;;;;;;4.88;3.38;;;;;;;2.21;73.82;96882.09;6246915;23;20095;-77
2023/01/30 11:09:23;;;;;;;5.35;3.17;;;;;;;2.22;73.53;96877.75;6246161;23;20020;-78
2023/01/30 11:11:52;;;;;;;5.13;3.70;;;;;;;2.21;73.58;96883.84;6247255;23;20352;-78
2023/01/30 11:14:20;;;;;;;5.07;3.58;;;;;;;2.20;73.87;96888.16;6248172;23;20078;-77
2023/01/30 11:16:51;;;;;;;4.20;3.55;;;;;;;2.23;74.06;96879.38;6247534;23;20026;-77
2023/01/30 11:19:22;;;;;;;5.47;3.58;;;;;;;2.25;73.96;96877.50;6246285;23;20042;-78
2023/01/30 11:21:51;;;;;;;6.43;4.50;;;;;;;2.27;73.81;96878.19;6247637;23;20051;-78
2023/01/30 11:24:22;;;;;;;6.07;4.22;;;;;;;2.26;73.92;96876.56;6246974;23;20542;-78
2023/01/30 11:26:51;;;;;;;7.22;4.13;;;;;;;2.27;74.43;96883.34;6246940;23;20027;-78
2023/01/30 11:29:28;;;;;;;5.65;4.05;;;;;;;2.29;74.72;96871.16;6246240;23;20472;-77
2023/01/30 11:32:01;;;;;;;5.57;4.32;;;;;;;2.32;74.40;96854.66;6247157;23;20044;-77
2023/01/30 11:34:29;;;;;;;6.95;4.22;;;;;;;2.30;74.57;96852.22;6246709;23;20024;-77
2023/01/30 11:37:13;;;;;;;6.90;3.72;;;;;;;2.29;74.91;96866.03;6249794;23;20031;-78
2023/01/30 11:39:50;;;;;;;6.53;4.20;;;;;;;2.28;74.64;96872.13;6245114;23;20046;-78
2023/01/30 11:42:19;;;;;;;5.00;3.83;;;;;;;2.28;74.43;96863.59;6246237;23;20024;-78
2023/01/30 11:44:46;;;;;;;10.18;5.70;;;;;;;2.28;75.18;96863.59;6246017;23;20355;-78
2023/01/30 11:47:24;;;;;;;6.72;4.78;;;;;;;2.26;75.49;96858.56;6246202;23;20405;-78
2023/01/30 11:49:55;;;;;;;7.45;4.40;;;;;;;2.27;75.03;96855.03;6245389;23;20464;-78
2023/01/30 11:52:45;;;;;;;5.65;4.25;;;;;;;2.30;75.23;96867.66;6246014;23;20020;-78
2023/01/30 11:55:18;;;;;;;17.65;5.65;;;;;;;2.32;75.70;96854.66;6246666;23;20408;-78
2023/01/30 11:57:52;;;;;;;6.28;4.13;;;;;;;2.31;75.55;96833.25;6247325;23;20102;-78